Time;durP1;ratioP1;P1;durP2;ratioP2;P2;SDS_P1;SDS_P2;PMS_P1;PMS_P2;Temp;Humidity;BMP_temperature;BMP_pressure;BME280_temperature;BME280_humidity;BME280_pressure;Samples;Min_cycle;Max_cycle;Signal;HPM_P1;HPM_P2
2022/08/06 00:02:20;;;;;;;14.55;12.47;;;;;;;19.97;100.00;99660.50;1739930;82;21082;-67
2022/08/06 00:04:47;;;;;;;13.15;11.83;;;;;;;19.98;100.00;99662.10;1732177;81;21023;-69
2022/08/06 00:07:13;;;;;;;16.75;12.07;;;;;;;19.98;100.00;99660.72;1739480;81;21086;-69
2022/08/06 00:09:40;;;;;;;13.83;12.43;;;;;;;19.98;100.00;99662.10;1734500;82;20973;-69
2022/08/06 00:12:07;;;;;;;17.10;11.88;;;;;;;19.99;100.00;99660.16;1738594;82;21006;-69
2022/08/06 00:14:34;;;;;;;13.10;11.83;;;;;;;19.98;100.00;99660.72;1728622;82;21006;-68
2022/08/06 00:17:00;;;;;;;13.03;11.73;;;;;;;19.99;100.00;99659.59;1733366;81;21008;-68
2022/08/06 00:19:27;;;;;;;13.22;11.80;;;;;;;19.98;100.00;99664.08;1729537;81;21025;-69
2022/08/06 00:21:53;;;;;;;13.30;12.00;;;;;;;19.96;100.00;99656.12;1732932;81;21051;-69
2022/08/06 00:24:20;;;;;;;12.90;11.40;;;;;;;19.97;100.00;99659.13;1736598;82;21450;-69
2022/08/06 00:26:47;;;;;;;15.72;12.03;;;;;;;19.96;100.00;99660.26;1727924;82;21043;-68
2022/08/06 00:29:13;;;;;;;12.50;11.20;;;;;;;19.96;100.00;99663.59;1736491;81;21566;-68
2022/08/06 00:31:40;;;;;;;15.98;12.10;;;;;;;19.94;100.00;99663.95;1723200;81;20994;-68
2022/08/06 00:34:08;;;;;;;14.07;12.00;;;;;;;19.94;100.00;99662.56;1743330;81;21070;-68
2022/08/06 00:36:34;;;;;;;12.90;11.50;;;;;;;19.95;100.00;99661.40;1744232;82;21079;-68
2022/08/06 00:39:03;;;;;;;13.30;11.33;;;;;;;19.96;100.00;99666.36;1737920;81;21074;-68
2022/08/06 00:41:32;;;;;;;12.37;11.03;;;;;;;19.98;100.00;99673.75;1732599;82;21035;-68
2022/08/06 00:43:59;;;;;;;15.60;11.65;;;;;;;19.98;100.00;99664.86;1741508;81;21078;-68
2022/08/06 00:46:26;;;;;;;14.05;12.07;;;;;;;19.99;100.00;99678.92;1741678;81;21050;-68
2022/08/06 00:48:53;;;;;;;13.40;11.55;;;;;;;19.99;100.00;99672.59;1735594;81;21804;-69
2022/08/06 00:51:20;;;;;;;15.93;11.53;;;;;;;19.99;100.00;99672.02;1742366;81;21113;-68
2022/08/06 00:53:47;;;;;;;13.93;12.15;;;;;;;20.01;100.00;99671.70;1744317;81;21459;-68
2022/08/06 00:56:13;;;;;;;14.03;11.88;;;;;;;20.00;100.00;99675.59;1741265;81;21496;-68
2022/08/06 00:58:40;;;;;;;13.93;11.30;;;;;;;19.98;100.00;99677.30;1738124;81;21165;-68
2022/08/06 01:01:07;;;;;;;14.87;11.20;;;;;;;19.97;100.00;99678.47;1736862;81;21113;-68
2022/08/06 01:03:34;;;;;;;13.80;11.55;;;;;;;19.94;100.00;99684.66;1748712;81;21095;-68
2022/08/06 01:06:01;;;;;;;14.33;11.10;;;;;;;19.92;100.00;99691.08;1739079;81;21081;-68
2022/08/06 01:08:28;;;;;;;13.95;11.63;;;;;;;19.91;100.00;99688.07;1741791;81;21582;-68
2022/08/06 01:10:54;;;;;;;13.05;11.10;;;;;;;19.91;100.00;99687.29;1740061;81;21079;-67
2022/08/06 01:13:21;;;;;;;13.60;11.30;;;;;;;19.90;100.00;99689.23;1740670;81;21040;-67
2022/08/06 01:15:55;;;;;;;12.23;10.95;;;;;;;19.87;100.00;99690.69;1735243;82;21094;-68
2022/08/06 01:18:26;;;;;;;12.40;11.10;;;;;;;19.85;100.00;99693.56;1743829;81;21510;-69
2022/08/06 01:21:04;;;;;;;13.25;10.75;;;;;;;19.81;100.00;99693.42;1730877;81;21035;-68
2022/08/06 01:24:09;;;;;;;14.05;11.12;;;;;;;19.77;100.00;99695.79;1746292;81;21071;-68
2022/08/06 01:26:50;;;;;;;11.83;10.15;;;;;;;19.74;100.00;99696.46;1740062;81;21465;-68
2022/08/06 01:29:23;;;;;;;12.80;10.20;;;;;;;19.72;100.00;99691.86;1727210;81;20992;-68
2022/08/06 01:32:08;;;;;;;10.23;9.23;;;;;;;19.68;100.00;99683.99;1743555;81;21022;-69
2022/08/06 01:34:47;;;;;;;13.38;10.63;;;;;;;19.66;100.00;99689.05;1717503;83;20993;-69
2022/08/06 01:37:30;;;;;;;13.40;9.88;;;;;;;19.64;100.00;99691.32;1681167;83;21063;-68
2022/08/06 01:40:00;;;;;;;10.98;9.88;;;;;;;19.66;100.00;99686.30;1687632;83;21001;-69
2022/08/06 01:42:27;;;;;;;10.40;9.38;;;;;;;19.67;100.00;99681.80;1693511;84;21086;-69
2022/08/06 01:44:54;;;;;;;10.98;9.68;;;;;;;19.66;100.00;99684.91;1691203;83;20990;-69
2022/08/06 01:47:20;;;;;;;10.88;9.50;;;;;;;19.63;100.00;99682.22;1695808;83;21137;-68
2022/08/06 01:49:50;;;;;;;11.50;10.28;;;;;;;19.62;100.00;99690.86;1693495;83;21059;-68
2022/08/06 01:52:17;;;;;;;12.53;10.20;;;;;;;19.64;100.00;99692.70;1662618;84;21107;-68
2022/08/06 01:54:45;;;;;;;12.55;9.75;;;;;;;19.64;100.00;99692.13;1695615;83;21058;-69
2022/08/06 01:57:12;;;;;;;10.82;9.68;;;;;;;19.64;100.00;99689.94;1716163;83;21113;-68
2022/08/06 01:59:44;;;;;;;11.50;10.10;;;;;;;19.61;100.00;99693.38;1721351;82;21102;-68
2022/08/06 02:02:15;;;;;;;11.83;9.85;;;;;;;19.59;100.00;99692.91;1683066;84;21074;-68
2022/08/06 02:04:41;;;;;;;11.03;9.85;;;;;;;19.59;100.00;99702.57;1713757;83;21078;-68
2022/08/06 02:07:09;;;;;;;13.10;10.20;;;;;;;19.55;100.00;99698.85;1689145;84;21616;-68
2022/08/06 02:09:36;;;;;;;13.15;10.13;;;;;;;19.52;100.00;99696.16;1684220;85;21059;-68
2022/08/06 02:12:08;;;;;;;13.55;10.65;;;;;;;19.52;100.00;99694.00;1683379;83;21052;-68
2022/08/06 02:14:47;;;;;;;13.78;9.55;;;;;;;19.55;100.00;99690.56;1705652;83;20991;-68
2022/08/06 02:17:15;;;;;;;10.98;9.83;;;;;;;19.53;100.00;99695.59;1683082;85;21932;-68
2022/08/06 02:19:47;;;;;;;12.98;10.70;;;;;;;19.50;100.00;99695.69;1697425;83;20968;-68
2022/08/06 02:22:13;;;;;;;10.45;9.35;;;;;;;19.47;100.00;99696.36;1698861;83;21122;-68
2022/08/06 02:24:40;;;;;;;11.10;9.45;;;;;;;19.43;100.00;99697.34;1698255;83;21042;-68
2022/08/06 02:27:06;;;;;;;13.32;9.43;;;;;;;19.38;100.00;99700.49;1687099;83;21023;-68
2022/08/06 02:29:34;;;;;;;11.93;9.25;;;;;;;19.35;100.00;99705.30;1750445;81;21007;-68
2022/08/06 02:32:00;;;;;;;11.22;9.40;;;;;;;19.34;100.00;99699.53;1746311;81;21027;-68
2022/08/06 02:34:27;;;;;;;13.53;9.65;;;;;;;19.35;100.00;99698.40;1738555;81;21022;-68
2022/08/06 02:37:12;;;;;;;12.75;9.05;;;;;;;19.38;100.00;99695.54;1745003;81;20966;-68
2022/08/06 02:39:46;;;;;;;11.60;9.35;;;;;;;19.42;100.00;99706.20;1716344;82;20979;-68
2022/08/06 02:42:20;;;;;;;12.63;10.45;;;;;;;19.39;100.00;99702.69;1729924;81;21040;-68
2022/08/06 02:45:20;;;;;;;13.72;10.30;;;;;;;19.32;100.00;99705.97;1741202;81;20968;-68
2022/08/06 02:47:54;;;;;;;11.60;9.25;;;;;;;19.32;100.00;99713.43;1740371;81;21561;-69
2022/08/06 02:50:25;;;;;;;13.45;9.43;;;;;;;19.33;100.00;99708.16;1644686;84;21071;-68
2022/08/06 02:53:08;;;;;;;11.95;9.50;;;;;;;19.30;100.00;99712.39;1741491;81;21687;-68
2022/08/06 02:55:38;;;;;;;12.82;9.55;;;;;;;19.25;100.00;99713.13;1742287;81;21024;-68
2022/08/06 02:58:13;;;;;;;12.13;9.20;;;;;;;19.23;100.00;99714.86;1739586;81;21099;-68
2022/08/06 03:00:41;;;;;;;11.35;9.75;;;;;;;19.20;100.00;99714.11;1746409;81;21006;-68
2022/08/06 03:03:08;;;;;;;10.85;9.75;;;;;;;19.12;100.00;99720.48;1742505;81;21110;-68
2022/08/06 03:05:36;;;;;;;11.55;9.73;;;;;;;19.07;100.00;99717.07;1743167;81;21022;-68
2022/08/06 03:08:06;;;;;;;11.08;8.95;;;;;;;19.06;100.00;99718.23;1736886;81;21059;-68
2022/08/06 03:10:33;;;;;;;10.40;9.40;;;;;;;19.06;100.00;99720.39;1683320;84;21574;-68
2022/08/06 03:12:59;;;;;;;10.82;9.00;;;;;;;19.08;100.00;99724.22;1739641;81;21070;-68
2022/08/06 03:15:26;;;;;;;11.65;8.63;;;;;;;19.12;100.00;99727.38;1739989;81;20999;-68
2022/08/06 03:17:58;;;;;;;10.38;8.83;;;;;;;19.13;100.00;99728.98;1742839;81;21569;-69
2022/08/06 03:20:21;;;;;;;11.33;8.93;;;;;;;19.09;100.00;99735.50;1739273;81;21498;-69
2022/08/06 03:22:50;;;;;;;14.65;9.08;;;;;;;19.09;100.00;99730.80;1742887;81;21051;-68
2022/08/06 03:25:16;;;;;;;13.32;8.90;;;;;;;19.13;100.00;99728.20;1709364;81;22133;-68
2022/08/06 03:27:44;;;;;;;10.25;8.88;;;;;;;19.13;100.00;99725.44;1708322;82;21055;-69
2022/08/06 03:30:17;;;;;;;11.75;8.43;;;;;;;19.11;100.00;99726.31;1711148;83;21393;-68
2022/08/06 03:32:44;;;;;;;13.93;9.40;;;;;;;19.09;100.00;99728.61;1700708;82;21120;-68
2022/08/06 03:35:11;;;;;;;12.40;8.53;;;;;;;19.12;100.00;99735.66;1680037;85;21007;-68
2022/08/06 03:37:38;;;;;;;10.65;8.35;;;;;;;19.12;100.00;99731.52;1699367;83;21094;-69
2022/08/06 03:40:05;;;;;;;10.08;8.53;;;;;;;19.12;100.00;99733.46;1683644;83;21018;-69
2022/08/06 03:42:32;;;;;;;12.47;8.83;;;;;;;19.13;100.00;99746.91;1690217;83;21173;-69
2022/08/06 03:44:58;;;;;;;9.98;8.30;;;;;;;19.19;100.00;99753.09;1695221;83;21398;-68
2022/08/06 03:47:32;;;;;;;9.18;8.20;;;;;;;19.27;100.00;99748.13;1698692;83;21036;-68
2022/08/06 03:50:15;;;;;;;9.18;8.15;;;;;;;19.36;100.00;99753.85;1690547;83;21045;-68
2022/08/06 03:52:54;;;;;;;10.23;8.03;;;;;;;19.41;100.00;99748.77;1695838;83;21125;-68
2022/08/06 03:55:24;;;;;;;9.78;7.53;;;;;;;19.56;100.00;99752.91;1689004;83;21029;-68
2022/08/06 03:57:54;;;;;;;12.05;8.20;;;;;;;19.82;100.00;99758.58;1663808;84;21086;-69
2022/08/06 04:00:24;;;;;;;9.88;7.72;;;;;;;20.14;100.00;99764.58;1696073;83;21474;-69
2022/08/06 04:02:52;;;;;;;10.43;7.67;;;;;;;20.42;100.00;99758.00;1697922;83;21146;-68
2022/08/06 04:05:26;;;;;;;9.68;7.40;;;;;;;20.65;100.00;99752.39;1693077;83;21015;-69
2022/08/06 04:07:55;;;;;;;8.13;7.00;;;;;;;20.93;100.00;99752.62;1691749;83;21063;-69
2022/08/06 04:10:25;;;;;;;9.53;7.12;;;;;;;21.22;100.00;99750.55;1695952;83;21003;-69
2022/08/06 04:12:52;;;;;;;9.90;8.18;;;;;;;21.43;100.00;99747.73;1685367;83;21170;-68
2022/08/06 04:15:18;;;;;;;11.88;7.87;;;;;;;21.65;100.00;99746.47;1692447;83;21499;-68
2022/08/06 04:17:45;;;;;;;7.85;7.05;;;;;;;21.91;100.00;99747.56;1690442;83;21553;-68
2022/08/06 04:20:15;;;;;;;8.68;7.15;;;;;;;22.13;100.00;99743.75;1696992;83;21027;-69
2022/08/06 04:22:42;;;;;;;9.68;7.50;;;;;;;22.46;100.00;99741.39;1689173;84;21119;-68
2022/08/06 04:25:10;;;;;;;10.95;7.37;;;;;;;22.46;100.00;99741.39;1693601;83;21494;-68
2022/08/06 04:27:38;;;;;;;7.92;6.75;;;;;;;22.60;100.00;99740.42;1663235;83;21047;-69
2022/08/06 04:30:06;;;;;;;7.42;6.58;;;;;;;22.71;100.00;99740.98;1683543;84;20993;-68
2022/08/06 04:32:33;;;;;;;8.75;6.92;;;;;;;22.88;100.00;99745.44;1682250;84;21086;-69
2022/08/06 04:35:02;;;;;;;7.83;7.03;;;;;;;23.03;100.00;99736.91;1679264;83;21003;-69
2022/08/06 04:37:29;;;;;;;10.50;6.85;;;;;;;23.13;100.00;99737.81;1732179;81;21044;-69
2022/08/06 04:41:48;;;;;;;8.73;7.40;;;;;;;23.30;100.00;99729.95;1776314;79;22917;-67
2022/08/06 04:44:14;;;;;;;10.08;7.20;;;;;;;23.33;100.00;99735.38;1719860;81;21116;-68
2022/08/06 04:46:41;;;;;;;8.95;7.00;;;;;;;23.41;100.00;99730.81;1719787;81;21044;-67
2022/08/06 04:49:08;;;;;;;8.40;7.60;;;;;;;23.52;100.00;99724.98;1718586;81;21688;-67
2022/08/06 04:51:35;;;;;;;8.43;7.53;;;;;;;23.67;100.00;99729.72;1618065;84;20995;-68
2022/08/06 04:54:06;;;;;;;10.78;7.22;;;;;;;23.82;100.00;99725.32;1657403;84;21071;-67
2022/08/06 04:56:32;;;;;;;10.30;7.80;;;;;;;23.90;100.00;99725.72;1674639;84;21126;-67
2022/08/06 04:58:59;;;;;;;10.10;7.53;;;;;;;24.04;100.00;99721.89;1660543;85;21091;-68
2022/08/06 05:01:25;;;;;;;8.10;7.37;;;;;;;24.09;100.00;99721.02;1659689;84;21631;-68
2022/08/06 05:03:51;;;;;;;8.58;7.65;;;;;;;24.33;100.00;99727.55;1673515;84;21062;-68
2022/08/06 05:06:46;;;;;;;10.10;6.92;;;;;;;24.55;100.00;99725.47;1656610;84;21094;-67
2022/08/06 05:09:25;;;;;;;7.92;7.12;;;;;;;24.73;100.00;99722.45;1663455;84;21103;-67
2022/08/06 05:12:04;;;;;;;8.33;7.53;;;;;;;24.94;100.00;99714.55;1657825;84;21027;-68
2022/08/06 05:14:42;;;;;;;9.13;7.28;;;;;;;25.11;100.00;99714.12;1668312;84;21054;-68
2022/08/06 05:17:11;;;;;;;8.68;7.35;;;;;;;25.17;100.00;99713.22;1659271;84;21039;-68
2022/08/06 05:19:44;;;;;;;9.03;7.40;;;;;;;25.19;100.00;99706.09;1634252;84;21024;-67
2022/08/06 05:22:11;;;;;;;10.20;8.18;;;;;;;25.35;100.00;99714.94;1669570;84;21078;-67
2022/08/06 05:24:38;;;;;;;8.20;7.40;;;;;;;25.52;100.00;99720.85;1670763;84;21074;-68
2022/08/06 05:27:05;;;;;;;12.55;8.60;;;;;;;25.61;100.00;99717.83;1665152;84;21031;-68
2022/08/06 05:29:31;;;;;;;9.03;7.65;;;;;;;25.68;100.00;99710.98;1659208;85;21644;-68
2022/08/06 05:31:59;;;;;;;9.48;7.85;;;;;;;25.64;100.00;99714.29;1635183;85;21021;-67
2022/08/06 05:34:26;;;;;;;11.48;7.95;;;;;;;25.57;100.00;99712.19;1672594;84;21055;-68
2022/08/06 05:36:52;;;;;;;11.45;8.40;;;;;;;25.70;100.00;99717.78;1661123;84;21055;-68
2022/08/06 05:39:19;;;;;;;13.28;7.75;;;;;;;25.94;100.00;99724.92;1665331;84;20983;-68
2022/08/06 05:50:27;;;;;;;;;;;;;;;26.55;100.00;99703.72;1791906;78;23740;-68
2022/08/06 05:53:04;;;;;;;11.03;7.25;;;;;;;26.48;100.00;99711.20;1730390;81;20136;-68
2022/08/06 05:55:54;;;;;;;10.20;7.47;;;;;;;26.46;100.00;99711.59;1703282;82;21007;-68
2022/08/06 05:58:37;;;;;;;10.38;7.42;;;;;;;26.64;100.00;99707.02;1715932;81;21063;-68
2022/08/06 06:01:05;;;;;;;11.80;7.12;;;;;;;26.83;100.00;99704.69;1694333;83;21058;-68
2022/08/06 06:03:31;;;;;;;8.53;6.90;;;;;;;26.86;100.00;99705.32;1681524;83;21005;-68
2022/08/06 06:06:00;;;;;;;8.55;7.08;;;;;;;26.92;100.00;99708.00;1696881;83;21063;-68
2022/08/06 06:08:26;;;;;;;8.38;6.92;;;;;;;27.08;100.00;99707.77;1682921;84;21066;-68
2022/08/06 06:10:53;;;;;;;7.70;6.92;;;;;;;27.24;100.00;99703.35;1685649;83;21118;-68
2022/08/06 06:13:22;;;;;;;9.90;6.90;;;;;;;27.40;100.00;99696.31;1684649;84;21493;-69
2022/08/06 06:15:57;;;;;;;7.50;6.37;;;;;;;27.28;100.00;99702.80;1688542;83;21066;-69
2022/08/06 06:18:56;;;;;;;7.05;5.85;;;;;;;27.29;100.00;99692.61;1693510;83;21094;-67
2022/08/06 06:21:43;;;;;;;6.87;5.47;;;;;;;27.40;100.00;99696.91;1708722;83;21011;-68
2022/08/06 06:24:27;;;;;;;9.65;5.33;;;;;;;27.45;100.00;99699.39;1662015;84;21513;-68
2022/08/06 06:27:00;;;;;;;11.68;6.20;;;;;;;27.49;100.00;99689.05;1675386;84;21055;-69
2022/08/06 06:29:47;;;;;;;8.13;5.78;;;;;;;27.48;100.00;99693.03;1680936;85;21110;-68
2022/08/06 06:32:19;;;;;;;6.90;5.78;;;;;;;27.48;100.00;99692.44;1676216;84;21875;-69
2022/08/06 06:34:57;;;;;;;9.28;6.17;;;;;;;27.44;100.00;99693.55;1677715;84;21016;-68
2022/08/06 06:37:53;;;;;;;9.65;5.72;;;;;;;27.50;100.00;99690.05;1678210;83;21138;-68
2022/08/06 06:41:00;;;;;;;8.75;5.78;;;;;;;27.54;100.00;99689.48;1683058;83;21059;-68
2022/08/06 06:44:02;;;;;;;10.23;6.35;;;;;;;27.68;100.00;99681.81;1679397;84;21032;-69
2022/08/06 06:46:50;;;;;;;9.28;5.17;;;;;;;27.85;100.00;99681.14;1674095;84;21097;-68
2022/08/06 06:49:21;;;;;;;9.08;5.37;;;;;;;28.07;100.00;99682.12;1671428;84;21071;-68
2022/08/06 06:51:58;;;;;;;9.10;5.35;;;;;;;28.21;100.00;99673.80;1666787;85;21669;-68
2022/08/06 06:54:35;;;;;;;8.15;4.97;;;;;;;28.23;100.00;99674.83;1657848;85;21103;-68
2022/08/06 06:57:01;;;;;;;9.48;5.30;;;;;;;28.22;100.00;99673.22;1657767;85;21207;-68
2022/08/06 06:59:34;;;;;;;9.35;5.45;;;;;;;28.12;100.00;99672.77;1666767;85;21591;-68
2022/08/06 07:02:02;;;;;;;9.95;4.83;;;;;;;28.01;100.00;99673.27;1658169;85;21118;-69
2022/08/06 07:04:29;;;;;;;8.10;4.42;;;;;;;27.92;100.00;99673.38;1667999;84;21092;-68
2022/08/06 07:06:58;;;;;;;8.78;5.05;;;;;;;28.03;100.00;99675.06;1666427;85;21158;-69
2022/08/06 07:09:27;;;;;;;6.97;4.75;;;;;;;28.06;100.00;99675.69;1669678;84;21026;-68
2022/08/06 07:11:55;;;;;;;8.53;4.75;;;;;;;28.14;100.00;99664.78;1667304;84;21543;-68
2022/08/06 07:14:23;;;;;;;7.10;4.60;;;;;;;28.38;100.00;99664.70;1713767;82;20987;-67
2022/08/06 07:16:51;;;;;;;8.15;5.10;;;;;;;28.54;100.00;99665.78;1681452;84;21049;-70
2022/08/06 07:19:17;;;;;;;11.75;5.47;;;;;;;28.79;100.00;99660.30;1713919;82;21139;-69
2022/08/06 07:21:44;;;;;;;9.08;5.60;;;;;;;29.02;100.00;99660.75;1724872;82;21125;-69
2022/08/06 07:24:13;;;;;;;7.17;5.20;;;;;;;29.19;100.00;99656.39;1717445;82;21024;-69
2022/08/06 07:26:42;;;;;;;7.45;5.25;;;;;;;29.31;100.00;99657.42;1684204;84;21079;-68
2022/08/06 07:29:10;;;;;;;5.47;4.70;;;;;;;29.30;100.00;99664.25;1717338;82;21093;-69
2022/08/06 07:31:37;;;;;;;7.22;5.33;;;;;;;29.23;100.00;99657.20;1721532;82;21050;-68
2022/08/06 07:34:05;;;;;;;6.37;5.08;;;;;;;29.28;100.00;99663.83;1714408;82;21028;-70
2022/08/06 07:36:35;;;;;;;7.92;5.20;;;;;;;29.42;100.00;99659.04;1710893;82;21067;-71
2022/08/06 07:39:10;;;;;;;6.30;4.90;;;;;;;29.45;100.00;99653.22;1710804;82;21059;-69
2022/08/06 07:41:37;;;;;;;;;;;;;;;29.45;100.00;99654.62;1720696;82;21654;-69
2022/08/06 07:44:05;;;;;;;10.48;5.85;;;;;;;29.44;100.00;99647.44;1713412;82;20107;-69
2022/08/06 07:46:39;;;;;;;6.25;4.75;;;;;;;29.34;100.00;99651.02;1715057;82;21712;-70
2022/08/06 07:49:06;;;;;;;7.45;5.67;;;;;;;29.48;100.00;99651.02;1724733;82;21055;-69
2022/08/06 07:51:37;;;;;;;6.67;4.97;;;;;;;29.61;100.00;99650.83;1718048;81;21137;-71
2022/08/06 07:54:03;;;;;;;8.00;4.87;;;;;;;29.71;100.00;99645.81;1689928;83;21042;-70
2022/08/06 07:56:30;;;;;;;5.67;4.92;;;;;;;29.85;100.00;99637.41;1686020;83;21034;-69
2022/08/06 07:58:56;;;;;;;8.95;5.30;;;;;;;30.02;100.00;99642.18;1722364;81;21526;-69
2022/08/06 08:01:23;;;;;;;8.28;5.37;;;;;;;30.10;100.00;99649.39;1728767;81;21627;-70
2022/08/06 08:06:35;;;;;;;6.10;4.95;;;;;;;29.83;100.00;99645.38;1718858;82;21031;-70
2022/08/06 08:09:06;;;;;;;6.85;4.72;;;;;;;29.85;100.00;99654.84;1726329;81;21070;-70
2022/08/06 08:11:33;;;;;;;7.53;4.75;;;;;;;30.01;100.00;99651.80;1730559;81;21130;-69
2022/08/06 08:13:59;;;;;;;7.22;4.90;;;;;;;30.15;100.00;99648.78;1713191;81;21018;-70
2022/08/06 08:16:26;;;;;;;5.40;4.80;;;;;;;30.10;100.00;99642.37;1722723;81;21640;-70
2022/08/06 08:18:53;;;;;;;8.15;5.03;;;;;;;30.23;100.00;99649.73;1726391;81;20999;-70
2022/08/06 08:21:20;;;;;;;7.53;5.12;;;;;;;30.40;100.00;99648.06;1726787;81;21051;-68
2022/08/06 08:23:47;;;;;;;8.53;4.85;;;;;;;30.52;100.00;99640.64;1729983;81;21013;-69
2022/08/06 08:26:14;;;;;;;7.95;4.80;;;;;;;30.61;100.00;99642.39;1725424;81;21077;-69
2022/08/06 08:28:41;;;;;;;5.87;4.90;;;;;;;30.65;100.00;99640.37;1708206;81;21014;-69
2022/08/06 08:31:08;;;;;;;6.72;4.65;;;;;;;30.63;100.00;99639.19;1692784;83;21608;-70
2022/08/06 08:33:35;;;;;;;7.40;5.37;;;;;;;30.59;100.00;99639.20;1723704;81;21007;-70
2022/08/06 08:36:04;;;;;;;5.85;4.85;;;;;;;30.66;100.00;99641.98;1725921;81;21057;-68
2022/08/06 08:38:32;;;;;;;7.33;4.70;;;;;;;30.62;100.00;99644.00;1724203;81;21028;-67
2022/08/06 08:41:07;;;;;;;6.72;4.58;;;;;;;30.56;100.00;99636.61;1723839;81;21661;-68
2022/08/06 08:43:38;;;;;;;5.73;4.77;;;;;;;30.47;100.00;99632.63;1717992;81;20989;-68
2022/08/06 08:46:06;;;;;;;6.08;4.70;;;;;;;30.50;100.00;99634.02;1715671;81;21081;-67
2022/08/06 08:48:32;;;;;;;7.53;4.67;;;;;;;30.58;100.00;99636.19;1700633;81;21021;-69
2022/08/06 08:51:00;;;;;;;9.58;4.83;;;;;;;30.67;100.00;99635.16;1714050;81;21015;-69
2022/08/06 08:53:35;;;;;;;5.17;4.50;;;;;;;30.74;100.00;99640.73;1688129;85;21011;-68
2022/08/06 08:56:02;;;;;;;6.47;4.60;;;;;;;30.82;100.00;99640.10;1725172;81;21063;-67
2022/08/06 08:58:31;;;;;;;7.20;4.60;;;;;;;30.73;100.00;99641.14;1721384;81;21537;-67
2022/08/06 09:00:58;;;;;;;7.72;4.55;;;;;;;30.56;100.00;99644.23;1721031;81;21587;-67
2022/08/06 09:03:25;;;;;;;6.58;4.50;;;;;;;30.55;100.00;99640.63;1719168;83;20999;-67
2022/08/06 09:05:51;;;;;;;5.97;4.60;;;;;;;30.58;100.00;99645.42;1720661;81;21058;-67
2022/08/06 09:08:18;;;;;;;6.87;5.10;;;;;;;30.62;100.00;99641.19;1713419;81;21106;-67
2022/08/06 09:10:44;;;;;;;6.75;5.17;;;;;;;30.76;100.00;99644.53;1720831;81;21078;-68
2022/08/06 09:13:11;;;;;;;6.92;5.22;;;;;;;30.75;100.00;99644.36;1700316;81;21628;-69
2022/08/06 09:15:38;;;;;;;6.95;4.80;;;;;;;30.71;100.00;99641.56;1721562;82;21136;-69
2022/08/06 09:18:05;;;;;;;6.85;4.70;;;;;;;30.67;100.00;99646.39;1725336;81;21703;-69
2022/08/06 09:20:31;;;;;;;7.08;5.08;;;;;;;30.65;100.00;99642.37;1687791;83;21533;-69
2022/08/06 09:22:58;;;;;;;7.75;4.55;;;;;;;30.71;100.00;99648.59;1711941;82;21706;-68
2022/08/06 09:25:38;;;;;;;7.37;5.10;;;;;;;30.73;100.00;99641.94;1724181;82;21589;-67
2022/08/06 09:28:32;;;;;;;6.30;4.53;;;;;;;30.67;100.00;99649.20;1723483;81;21026;-69
2022/08/06 09:31:06;;;;;;;7.25;5.42;;;;;;;30.45;100.00;99644.88;1696579;83;21652;-68
2022/08/06 09:33:36;;;;;;;5.37;4.87;;;;;;;30.24;100.00;99652.75;1731219;81;21439;-68
2022/08/06 09:36:08;;;;;;;8.25;5.25;;;;;;;30.12;100.00;99650.37;1722689;81;21063;-67
2022/08/06 09:38:57;;;;;;;6.40;5.80;;;;;;;30.07;100.00;99648.80;1726613;81;20963;-68
2022/08/06 09:41:27;;;;;;;8.60;5.47;;;;;;;30.06;100.00;99647.19;1640714;83;21081;-68
2022/08/06 09:43:55;;;;;;;9.23;5.97;;;;;;;29.99;100.00;99647.20;1724733;82;21853;-68
2022/08/06 09:46:43;;;;;;;8.73;5.95;;;;;;;29.96;100.00;99640.20;1724808;81;21601;-69
2022/08/06 09:49:12;;;;;;;7.05;5.87;;;;;;;29.89;100.00;99639.61;1724783;81;21002;-70
2022/08/06 09:51:39;;;;;;;10.55;6.72;;;;;;;29.78;100.00;99636.58;1726804;80;22008;-68
2022/08/06 09:54:09;;;;;;;7.80;6.12;;;;;;;29.69;100.00;99639.79;1720878;81;21022;-68
2022/08/06 09:56:37;;;;;;;8.80;6.47;;;;;;;29.61;100.00;99636.21;1723065;81;21062;-67
2022/08/06 09:59:06;;;;;;;7.70;6.65;;;;;;;29.53;100.00;99633.80;1718858;82;20999;-67
2022/08/06 10:01:46;;;;;;;8.18;6.60;;;;;;;29.38;100.00;99634.40;1701539;81;21110;-66
2022/08/06 10:04:25;;;;;;;7.92;7.12;;;;;;;29.13;100.00;99637.75;1731019;81;21460;-68
2022/08/06 10:07:01;;;;;;;7.78;6.87;;;;;;;29.09;100.00;99643.34;1709985;81;21117;-67
2022/08/06 10:09:30;;;;;;;11.18;7.08;;;;;;;29.09;100.00;99640.55;1719192;81;21035;-67
2022/08/06 10:11:57;;;;;;;7.90;6.67;;;;;;;29.11;100.00;99634.55;1730876;81;21524;-66
2022/08/06 10:14:33;;;;;;;6.70;6.00;;;;;;;29.11;100.00;99642.97;1730732;81;21061;-66
2022/08/06 10:17:10;;;;;;;9.00;6.30;;;;;;;29.11;100.00;99640.16;1725721;82;21042;-66
2022/08/06 10:19:38;;;;;;;7.95;5.87;;;;;;;29.08;100.00;99629.16;1726412;81;20974;-68
2022/08/06 10:22:08;;;;;;;6.87;6.03;;;;;;;29.05;100.00;99635.53;1723696;81;21089;-65
2022/08/06 10:24:44;;;;;;;8.00;6.60;;;;;;;29.11;100.00;99639.56;1710059;81;20978;-66
2022/08/06 10:27:13;;;;;;;8.40;5.62;;;;;;;29.18;100.00;99628.16;1725443;81;21055;-66
2022/08/06 10:29:46;;;;;;;6.72;5.10;;;;;;;29.18;100.00;99631.77;1724720;82;21045;-67
2022/08/06 10:32:15;;;;;;;7.72;5.37;;;;;;;29.18;100.00;99639.36;1678417;83;21118;-68
2022/08/06 10:34:44;;;;;;;7.58;4.83;;;;;;;29.23;100.00;99636.18;1717122;81;20943;-69
2022/08/06 10:37:11;;;;;;;6.40;4.65;;;;;;;29.30;100.00;99637.62;1724075;82;21011;-71
2022/08/06 10:39:42;;;;;;;5.37;4.87;;;;;;;29.35;100.00;99638.60;1718116;81;21039;-69
2022/08/06 10:42:08;;;;;;;6.78;5.28;;;;;;;29.36;100.00;99636.02;1732617;80;21038;-70
2022/08/06 10:44:35;;;;;;;7.45;5.20;;;;;;;29.40;100.00;99636.22;1716982;81;21019;-70
2022/08/06 10:47:02;;;;;;;6.15;5.45;;;;;;;29.49;100.00;99635.80;1719931;82;21070;-67
2022/08/06 10:49:29;;;;;;;7.47;6.22;;;;;;;29.52;100.00;99637.20;1718084;81;21020;-68
2022/08/06 10:51:56;;;;;;;6.05;5.30;;;;;;;29.54;100.00;99630.61;1710675;82;21061;-68
2022/08/06 10:54:22;;;;;;;9.23;5.40;;;;;;;29.52;100.00;99629.39;1719445;82;22282;-68
2022/08/06 10:56:49;;;;;;;5.90;5.22;;;;;;;29.60;100.00;99640.81;1707461;82;21078;-68
2022/08/06 10:59:16;;;;;;;6.70;5.20;;;;;;;29.74;100.00;99639.39;1716945;82;21015;-68
2022/08/06 11:02:20;;;;;;;5.97;5.37;;;;;;;29.84;100.00;99632.16;1718364;82;21062;-69
2022/08/06 11:05:04;;;;;;;10.78;5.80;;;;;;;29.91;100.00;99625.97;1698959;82;21054;-70
2022/08/06 11:08:00;;;;;;;7.30;5.92;;;;;;;29.92;100.00;99621.16;1706843;82;21067;-69
2022/08/06 11:11:07;;;;;;;8.78;5.92;;;;;;;29.91;100.00;99621.75;1715802;82;21079;-69
2022/08/06 11:13:57;;;;;;;6.47;5.55;;;;;;;29.98;100.00;99627.35;1728100;82;21473;-70
2022/08/06 11:16:28;;;;;;;6.37;5.30;;;;;;;30.00;100.00;99617.94;1696973;82;21600;-68
2022/08/06 11:19:07;;;;;;;6.95;5.12;;;;;;;30.17;100.00;99624.70;1694354;83;21007;-69
2022/08/06 11:21:45;;;;;;;5.95;5.33;;;;;;;30.19;100.00;99622.88;1716288;81;21070;-71
2022/08/06 11:24:13;;;;;;;5.92;5.12;;;;;;;30.13;100.00;99626.12;1714780;83;20994;-70
2022/08/06 11:26:42;;;;;;;6.15;5.53;;;;;;;30.04;100.00;99624.31;1721768;82;21075;-69
2022/08/06 11:29:10;;;;;;;6.60;4.70;;;;;;;30.08;100.00;99619.50;1714229;82;21026;-69
2022/08/06 11:31:46;;;;;;;6.00;4.55;;;;;;;30.11;100.00;99621.49;1715045;82;21553;-69
2022/08/06 11:34:14;;;;;;;5.72;5.15;;;;;;;30.08;100.00;99622.30;1717438;83;20986;-70
2022/08/06 11:36:56;;;;;;;6.45;5.62;;;;;;;30.08;100.00;99622.30;1715948;82;21123;-70
2022/08/06 11:39:24;;;;;;;5.87;5.28;;;;;;;30.11;100.00;99632.72;1713267;82;20971;-70
2022/08/06 11:41:56;;;;;;;6.67;5.10;;;;;;;30.01;100.00;99622.33;1711813;82;21519;-71
2022/08/06 11:44:25;;;;;;;8.18;5.45;;;;;;;29.88;100.00;99619.76;1720301;82;20997;-69
2022/08/06 11:47:12;;;;;;;5.87;5.22;;;;;;;29.82;100.00;99621.36;1709085;82;21614;-69
2022/08/06 11:49:43;;;;;;;8.98;5.17;;;;;;;29.81;100.00;99614.73;1742239;82;20991;-68
2022/08/06 11:52:37;;;;;;;6.55;5.10;;;;;;;29.83;100.00;99615.14;1707286;83;21019;-67
2022/08/06 11:55:06;;;;;;;5.50;5.00;;;;;;;29.84;100.00;99613.92;1722144;82;20995;-67